sensor_id;sensor_type;location;lat;lon;timestamp;P1;durP1;ratioP1;P2;durP2;ratioP2
34765;SDS011;20984;43.508;1.504;2023-12-20T00:01:35;21.35;;;14.02;;
34765;SDS011;20984;43.508;1.504;2023-12-20T00:04:01;16.75;;;14.13;;
34765;SDS011;20984;43.508;1.504;2023-12-20T00:06:27;22.73;;;16.02;;
34765;SDS011;20984;43.508;1.504;2023-12-20T00:08:53;18.25;;;15.35;;
34765;SDS011;20984;43.508;1.504;2023-12-20T00:11:18;21.00;;;15.68;;
34765;SDS011;20984;43.508;1.504;2023-12-20T00:13:44;20.25;;;14.77;;
34765;SDS011;20984;43.508;1.504;2023-12-20T00:16:10;18.00;;;13.80;;
34765;SDS011;20984;43.508;1.504;2023-12-20T00:18:35;16.67;;;13.27;;
34765;SDS011;20984;43.508;1.504;2023-12-20T00:21:01;16.90;;;13.57;;
34765;SDS011;20984;43.508;1.504;2023-12-20T00:23:27;16.85;;;13.40;;
34765;SDS011;20984;43.508;1.504;2023-12-20T00:25:52;17.13;;;13.73;;
34765;SDS011;20984;43.508;1.504;2023-12-20T00:28:18;17.92;;;14.38;;
34765;SDS011;20984;43.508;1.504;2023-12-20T00:30:43;16.27;;;13.40;;
34765;SDS011;20984;43.508;1.504;2023-12-20T00:33:09;16.90;;;14.70;;
34765;SDS011;20984;43.508;1.504;2023-12-20T00:35:35;16.33;;;13.60;;
34765;SDS011;20984;43.508;1.504;2023-12-20T00:38:00;18.20;;;14.82;;
34765;SDS011;20984;43.508;1.504;2023-12-20T00:40:26;20.25;;;14.02;;
34765;SDS011;20984;43.508;1.504;2023-12-20T00:42:51;15.98;;;13.88;;
34765;SDS011;20984;43.508;1.504;2023-12-20T00:45:17;15.57;;;13.63;;
34765;SDS011;20984;43.508;1.504;2023-12-20T00:47:43;16.58;;;14.10;;
34765;SDS011;20984;43.508;1.504;2023-12-20T00:50:08;16.75;;;13.75;;
34765;SDS011;20984;43.508;1.504;2023-12-20T00:52:34;17.48;;;13.52;;
34765;SDS011;20984;43.508;1.504;2023-12-20T00:55:00;16.92;;;13.23;;
34765;SDS011;20984;43.508;1.504;2023-12-20T00:57:25;16.20;;;13.25;;
34765;SDS011;20984;43.508;1.504;2023-12-20T00:59:51;21.42;;;13.95;;
34765;SDS011;20984;43.508;1.504;2023-12-20T01:02:17;16.75;;;13.93;;
34765;SDS011;20984;43.508;1.504;2023-12-20T01:04:43;19.63;;;14.10;;
34765;SDS011;20984;43.508;1.504;2023-12-20T01:07:08;16.42;;;13.45;;
34765;SDS011;20984;43.508;1.504;2023-12-20T01:09:34;16.60;;;13.43;;
34765;SDS011;20984;43.508;1.504;2023-12-20T01:11:59;16.33;;;14.27;;
34765;SDS011;20984;43.508;1.504;2023-12-20T01:14:25;17.65;;;13.35;;
34765;SDS011;20984;43.508;1.504;2023-12-20T01:16:51;14.60;;;12.57;;
34765;SDS011;20984;43.508;1.504;2023-12-20T01:19:16;14.35;;;12.63;;
34765;SDS011;20984;43.508;1.504;2023-12-20T01:21:42;19.30;;;13.85;;
34765;SDS011;20984;43.508;1.504;2023-12-20T01:24:08;14.38;;;12.35;;
34765;SDS011;20984;43.508;1.504;2023-12-20T01:26:34;15.90;;;12.80;;
34765;SDS011;20984;43.508;1.504;2023-12-20T01:28:59;17.70;;;12.50;;
34765;SDS011;20984;43.508;1.504;2023-12-20T01:31:26;12.98;;;11.60;;
34765;SDS011;20984;43.508;1.504;2023-12-20T01:33:52;14.68;;;11.98;;
34765;SDS011;20984;43.508;1.504;2023-12-20T01:36:18;13.60;;;11.27;;
34765;SDS011;20984;43.508;1.504;2023-12-20T01:38:43;18.90;;;14.63;;
34765;SDS011;20984;43.508;1.504;2023-12-20T01:41:09;14.93;;;11.90;;
34765;SDS011;20984;43.508;1.504;2023-12-20T01:43:34;13.15;;;11.77;;
34765;SDS011;20984;43.508;1.504;2023-12-20T01:46:00;15.00;;;10.70;;
34765;SDS011;20984;43.508;1.504;2023-12-20T01:48:26;12.52;;;11.23;;
34765;SDS011;20984;43.508;1.504;2023-12-20T01:50:53;14.80;;;11.88;;
34765;SDS011;20984;43.508;1.504;2023-12-20T01:53:20;14.48;;;11.68;;
34765;SDS011;20984;43.508;1.504;2023-12-20T01:55:49;12.57;;;11.35;;
34765;SDS011;20984;43.508;1.504;2023-12-20T01:58:17;14.77;;;10.82;;
34765;SDS011;20984;43.508;1.504;2023-12-20T02:00:44;13.32;;;11.00;;
34765;SDS011;20984;43.508;1.504;2023-12-20T02:03:11;14.30;;;11.20;;
34765;SDS011;20984;43.508;1.504;2023-12-20T02:05:37;11.77;;;10.05;;
34765;SDS011;20984;43.508;1.504;2023-12-20T02:08:04;13.30;;;11.63;;
34765;SDS011;20984;43.508;1.504;2023-12-20T02:10:30;14.00;;;12.05;;
34765;SDS011;20984;43.508;1.504;2023-12-20T02:12:56;12.40;;;11.10;;
34765;SDS011;20984;43.508;1.504;2023-12-20T02:15:22;14.35;;;11.15;;
34765;SDS011;20984;43.508;1.504;2023-12-20T02:17:48;15.23;;;11.45;;
34765;SDS011;20984;43.508;1.504;2023-12-20T02:20:14;11.38;;;10.18;;
34765;SDS011;20984;43.508;1.504;2023-12-20T02:22:40;14.55;;;10.05;;
34765;SDS011;20984;43.508;1.504;2023-12-20T02:25:06;11.93;;;9.52;;
34765;SDS011;20984;43.508;1.504;2023-12-20T02:27:32;11.73;;;10.52;;
34765;SDS011;20984;43.508;1.504;2023-12-20T02:29:57;11.77;;;10.48;;
34765;SDS011;20984;43.508;1.504;2023-12-20T02:32:24;12.15;;;10.48;;
34765;SDS011;20984;43.508;1.504;2023-12-20T02:34:53;11.50;;;10.30;;
34765;SDS011;20984;43.508;1.504;2023-12-20T02:37:19;11.60;;;10.40;;
34765;SDS011;20984;43.508;1.504;2023-12-20T02:39:45;11.48;;;9.82;;
34765;SDS011;20984;43.508;1.504;2023-12-20T02:42:11;11.40;;;10.25;;
34765;SDS011;20984;43.508;1.504;2023-12-20T02:44:36;12.23;;;10.40;;
34765;SDS011;20984;43.508;1.504;2023-12-20T02:47:02;13.15;;;11.20;;
34765;SDS011;20984;43.508;1.504;2023-12-20T02:49:28;11.80;;;10.57;;
34765;SDS011;20984;43.508;1.504;2023-12-20T02:51:54;11.30;;;10.00;;
34765;SDS011;20984;43.508;1.504;2023-12-20T02:54:19;14.20;;;11.45;;
34765;SDS011;20984;43.508;1.504;2023-12-20T02:56:45;12.07;;;10.73;;
34765;SDS011;20984;43.508;1.504;2023-12-20T02:59:10;12.10;;;10.75;;
34765;SDS011;20984;43.508;1.504;2023-12-20T03:01:41;12.57;;;11.18;;
34765;SDS011;20984;43.508;1.504;2023-12-20T03:04:09;10.95;;;9.70;;
34765;SDS011;20984;43.508;1.504;2023-12-20T03:06:35;11.93;;;10.07;;
34765;SDS011;20984;43.508;1.504;2023-12-20T03:09:00;12.20;;;10.30;;
34765;SDS011;20984;43.508;1.504;2023-12-20T03:11:26;11.85;;;9.00;;
34765;SDS011;20984;43.508;1.504;2023-12-20T03:13:52;10.75;;;9.55;;
34765;SDS011;20984;43.508;1.504;2023-12-20T03:16:18;11.35;;;9.50;;
34765;SDS011;20984;43.508;1.504;2023-12-20T03:18:44;11.68;;;10.57;;
34765;SDS011;20984;43.508;1.504;2023-12-20T03:21:09;12.25;;;10.45;;
34765;SDS011;20984;43.508;1.504;2023-12-20T03:23:35;12.05;;;10.05;;
34765;SDS011;20984;43.508;1.504;2023-12-20T03:26:00;11.63;;;10.38;;
34765;SDS011;20984;43.508;1.504;2023-12-20T03:28:27;12.73;;;10.68;;
34765;SDS011;20984;43.508;1.504;2023-12-20T03:30:53;13.18;;;10.43;;
34765;SDS011;20984;43.508;1.504;2023-12-20T03:33:18;11.90;;;10.10;;
34765;SDS011;20984;43.508;1.504;2023-12-20T03:35:44;13.85;;;10.43;;
34765;SDS011;20984;43.508;1.504;2023-12-20T03:38:10;13.27;;;9.88;;
34765;SDS011;20984;43.508;1.504;2023-12-20T03:40:35;12.32;;;10.68;;
34765;SDS011;20984;43.508;1.504;2023-12-20T03:43:01;11.68;;;10.45;;
34765;SDS011;20984;43.508;1.504;2023-12-20T03:45:27;11.70;;;10.50;;
34765;SDS011;20984;43.508;1.504;2023-12-20T03:47:52;15.50;;;12.18;;
34765;SDS011;20984;43.508;1.504;2023-12-20T03:50:20;13.13;;;11.23;;
34765;SDS011;20984;43.508;1.504;2023-12-20T03:52:49;14.25;;;11.40;;
34765;SDS011;20984;43.508;1.504;2023-12-20T03:55:15;12.60;;;11.30;;
34765;SDS011;20984;43.508;1.504;2023-12-20T03:57:40;14.40;;;11.35;;
34765;SDS011;20984;43.508;1.504;2023-12-20T04:00:09;13.30;;;10.95;;
34765;SDS011;20984;43.508;1.504;2023-12-20T04:02:39;15.30;;;10.65;;
34765;SDS011;20984;43.508;1.504;2023-12-20T04:05:05;13.73;;;12.23;;
34765;SDS011;20984;43.508;1.504;2023-12-20T04:07:31;13.00;;;11.65;;
34765;SDS011;20984;43.508;1.504;2023-12-20T04:09:57;14.50;;;11.52;;
34765;SDS011;20984;43.508;1.504;2023-12-20T04:12:23;14.00;;;11.82;;
34765;SDS011;20984;43.508;1.504;2023-12-20T04:14:49;17.10;;;12.45;;
34765;SDS011;20984;43.508;1.504;2023-12-20T04:17:15;14.80;;;11.77;;
34765;SDS011;20984;43.508;1.504;2023-12-20T04:19:41;16.13;;;14.15;;
34765;SDS011;20984;43.508;1.504;2023-12-20T04:22:07;14.73;;;13.23;;
34765;SDS011;20984;43.508;1.504;2023-12-20T04:24:33;15.35;;;13.40;;
34765;SDS011;20984;43.508;1.504;2023-12-20T04:26:58;13.77;;;11.93;;
34765;SDS011;20984;43.508;1.504;2023-12-20T04:29:24;18.02;;;13.27;;
34765;SDS011;20984;43.508;1.504;2023-12-20T04:31:50;14.70;;;13.05;;
34765;SDS011;20984;43.508;1.504;2023-12-20T04:34:16;18.50;;;13.27;;
34765;SDS011;20984;43.508;1.504;2023-12-20T04:36:43;15.82;;;12.85;;
34765;SDS011;20984;43.508;1.504;2023-12-20T04:39:08;15.18;;;11.13;;
34765;SDS011;20984;43.508;1.504;2023-12-20T04:41:34;13.05;;;11.73;;
34765;SDS011;20984;43.508;1.504;2023-12-20T04:44:00;12.50;;;10.38;;
34765;SDS011;20984;43.508;1.504;2023-12-20T04:46:26;11.93;;;9.45;;
34765;SDS011;20984;43.508;1.504;2023-12-20T04:48:51;13.25;;;11.23;;
34765;SDS011;20984;43.508;1.504;2023-12-20T04:51:17;12.52;;;10.18;;
34765;SDS011;20984;43.508;1.504;2023-12-20T04:53:43;12.18;;;10.57;;
34765;SDS011;20984;43.508;1.504;2023-12-20T04:56:08;12.82;;;11.18;;
34765;SDS011;20984;43.508;1.504;2023-12-20T04:58:34;9.68;;;8.57;;
34765;SDS011;20984;43.508;1.504;2023-12-20T05:01:00;9.10;;;8.13;;
34765;SDS011;20984;43.508;1.504;2023-12-20T05:03:26;9.35;;;7.38;;
34765;SDS011;20984;43.508;1.504;2023-12-20T05:05:51;10.70;;;9.60;;
34765;SDS011;20984;43.508;1.504;2023-12-20T05:08:17;10.70;;;8.02;;
34765;SDS011;20984;43.508;1.504;2023-12-20T05:10:43;8.82;;;7.82;;
34765;SDS011;20984;43.508;1.504;2023-12-20T05:13:08;8.57;;;7.50;;
34765;SDS011;20984;43.508;1.504;2023-12-20T05:15:34;9.35;;;7.25;;
34765;SDS011;20984;43.508;1.504;2023-12-20T05:18:00;7.35;;;6.57;;
34765;SDS011;20984;43.508;1.504;2023-12-20T05:20:25;12.02;;;8.43;;
34765;SDS011;20984;43.508;1.504;2023-12-20T05:22:51;9.77;;;8.88;;
34765;SDS011;20984;43.508;1.504;2023-12-20T05:25:17;8.48;;;7.22;;
34765;SDS011;20984;43.508;1.504;2023-12-20T05:27:42;8.05;;;7.22;;
34765;SDS011;20984;43.508;1.504;2023-12-20T05:30:08;8.60;;;7.70;;
34765;SDS011;20984;43.508;1.504;2023-12-20T05:32:34;9.52;;;8.50;;
34765;SDS011;20984;43.508;1.504;2023-12-20T05:35:00;10.60;;;8.30;;
34765;SDS011;20984;43.508;1.504;2023-12-20T05:37:25;9.27;;;8.38;;
34765;SDS011;20984;43.508;1.504;2023-12-20T05:39:51;11.20;;;7.93;;
34765;SDS011;20984;43.508;1.504;2023-12-20T05:42:16;8.90;;;7.38;;
34765;SDS011;20984;43.508;1.504;2023-12-20T05:44:42;6.68;;;5.97;;
34765;SDS011;20984;43.508;1.504;2023-12-20T05:47:08;11.10;;;6.88;;
34765;SDS011;20984;43.508;1.504;2023-12-20T05:49:33;8.05;;;7.25;;
34765;SDS011;20984;43.508;1.504;2023-12-20T05:51:59;6.35;;;5.75;;
34765;SDS011;20984;43.508;1.504;2023-12-20T05:54:24;7.75;;;6.57;;
34765;SDS011;20984;43.508;1.504;2023-12-20T05:56:50;8.57;;;6.97;;
34765;SDS011;20984;43.508;1.504;2023-12-20T05:59:16;8.70;;;6.38;;
34765;SDS011;20984;43.508;1.504;2023-12-20T06:01:41;15.45;;;9.63;;
34765;SDS011;20984;43.508;1.504;2023-12-20T06:04:07;6.07;;;5.50;;
34765;SDS011;20984;43.508;1.504;2023-12-20T06:06:32;12.40;;;6.97;;
34765;SDS011;20984;43.508;1.504;2023-12-20T06:08:58;6.72;;;5.80;;
34765;SDS011;20984;43.508;1.504;2023-12-20T06:11:24;7.45;;;6.10;;
34765;SDS011;20984;43.508;1.504;2023-12-20T06:13:49;6.40;;;5.47;;
34765;SDS011;20984;43.508;1.504;2023-12-20T06:16:18;5.65;;;5.15;;
34765;SDS011;20984;43.508;1.504;2023-12-20T06:18:44;5.50;;;5.00;;
34765;SDS011;20984;43.508;1.504;2023-12-20T06:21:09;6.07;;;5.47;;
34765;SDS011;20984;43.508;1.504;2023-12-20T06:23:38;6.38;;;5.45;;
34765;SDS011;20984;43.508;1.504;2023-12-20T06:26:04;6.35;;;5.43;;
34765;SDS011;20984;43.508;1.504;2023-12-20T06:28:29;5.88;;;5.10;;
34765;SDS011;20984;43.508;1.504;2023-12-20T06:30:55;5.50;;;4.95;;
34765;SDS011;20984;43.508;1.504;2023-12-20T06:33:22;7.40;;;4.82;;
34765;SDS011;20984;43.508;1.504;2023-12-20T06:35:48;4.80;;;4.22;;
34765;SDS011;20984;43.508;1.504;2023-12-20T06:38:14;5.80;;;4.78;;
34765;SDS011;20984;43.508;1.504;2023-12-20T06:40:39;4.93;;;4.45;;
34765;SDS011;20984;43.508;1.504;2023-12-20T06:43:05;6.78;;;4.70;;
34765;SDS011;20984;43.508;1.504;2023-12-20T06:45:31;4.38;;;3.97;;
34765;SDS011;20984;43.508;1.504;2023-12-20T06:47:57;4.13;;;3.72;;
34765;SDS011;20984;43.508;1.504;2023-12-20T06:50:23;5.05;;;4.50;;
34765;SDS011;20984;43.508;1.504;2023-12-20T06:52:49;5.25;;;4.78;;
34765;SDS011;20984;43.508;1.504;2023-12-20T06:55:15;5.30;;;4.43;;
34765;SDS011;20984;43.508;1.504;2023-12-20T06:57:42;4.55;;;4.15;;
34765;SDS011;20984;43.508;1.504;2023-12-20T07:00:08;5.07;;;4.40;;
34765;SDS011;20984;43.508;1.504;2023-12-20T07:02:35;5.22;;;4.60;;
34765;SDS011;20984;43.508;1.504;2023-12-20T07:05:01;4.40;;;4.00;;
34765;SDS011;20984;43.508;1.504;2023-12-20T07:07:27;3.97;;;3.03;;
34765;SDS011;20984;43.508;1.504;2023-12-20T07:09:52;4.55;;;4.15;;
34765;SDS011;20984;43.508;1.504;2023-12-20T07:12:18;5.18;;;4.53;;
34765;SDS011;20984;43.508;1.504;2023-12-20T07:14:44;4.60;;;4.18;;
34765;SDS011;20984;43.508;1.504;2023-12-20T07:17:10;5.28;;;4.78;;
34765;SDS011;20984;43.508;1.504;2023-12-20T07:19:38;5.63;;;4.53;;
34765;SDS011;20984;43.508;1.504;2023-12-20T07:22:05;5.57;;;4.10;;
34765;SDS011;20984;43.508;1.504;2023-12-20T07:24:31;4.18;;;3.78;;
34765;SDS011;20984;43.508;1.504;2023-12-20T07:26:57;4.93;;;4.00;;
34765;SDS011;20984;43.508;1.504;2023-12-20T07:29:24;4.15;;;3.75;;
34765;SDS011;20984;43.508;1.504;2023-12-20T07:31:50;3.60;;;3.30;;
34765;SDS011;20984;43.508;1.504;2023-12-20T07:34:17;3.75;;;3.45;;
34765;SDS011;20984;43.508;1.504;2023-12-20T07:36:42;3.42;;;3.13;;
34765;SDS011;20984;43.508;1.504;2023-12-20T07:39:08;3.65;;;3.35;;
34765;SDS011;20984;43.508;1.504;2023-12-20T07:41:34;4.60;;;3.35;;
34765;SDS011;20984;43.508;1.504;2023-12-20T07:43:59;4.05;;;3.70;;
34765;SDS011;20984;43.508;1.504;2023-12-20T07:46:25;3.70;;;3.35;;
34765;SDS011;20984;43.508;1.504;2023-12-20T07:48:50;4.32;;;3.92;;
34765;SDS011;20984;43.508;1.504;2023-12-20T07:51:16;3.67;;;3.38;;
34765;SDS011;20984;43.508;1.504;2023-12-20T07:53:42;4.22;;;3.83;;
34765;SDS011;20984;43.508;1.504;2023-12-20T07:56:14;3.75;;;3.45;;
34765;SDS011;20984;43.508;1.504;2023-12-20T07:58:41;3.55;;;3.25;;
34765;SDS011;20984;43.508;1.504;2023-12-20T08:01:07;4.43;;;4.03;;
34765;SDS011;20984;43.508;1.504;2023-12-20T08:03:32;5.50;;;3.67;;
34765;SDS011;20984;43.508;1.504;2023-12-20T08:05:58;4.30;;;3.63;;
34765;SDS011;20984;43.508;1.504;2023-12-20T08:08:24;4.03;;;3.65;;
34765;SDS011;20984;43.508;1.504;2023-12-20T08:10:50;4.18;;;3.78;;
34765;SDS011;20984;43.508;1.504;2023-12-20T08:13:16;4.32;;;3.10;;
34765;SDS011;20984;43.508;1.504;2023-12-20T08:15:41;3.25;;;2.95;;
34765;SDS011;20984;43.508;1.504;2023-12-20T08:18:07;4.22;;;3.60;;
34765;SDS011;20984;43.508;1.504;2023-12-20T08:20:33;3.65;;;3.13;;
34765;SDS011;20984;43.508;1.504;2023-12-20T08:22:58;4.10;;;3.72;;
34765;SDS011;20984;43.508;1.504;2023-12-20T08:25:24;3.72;;;3.42;;
34765;SDS011;20984;43.508;1.504;2023-12-20T08:27:50;3.30;;;3.00;;
34765;SDS011;20984;43.508;1.504;2023-12-20T08:30:15;4.55;;;4.03;;
34765;SDS011;20984;43.508;1.504;2023-12-20T08:32:45;4.25;;;3.83;;
34765;SDS011;20984;43.508;1.504;2023-12-20T08:35:11;4.45;;;4.05;;
34765;SDS011;20984;43.508;1.504;2023-12-20T08:37:37;4.45;;;4.05;;
34765;SDS011;20984;43.508;1.504;2023-12-20T08:40:02;4.13;;;3.72;;
34765;SDS011;20984;43.508;1.504;2023-12-20T08:42:28;4.13;;;3.80;;
34765;SDS011;20984;43.508;1.504;2023-12-20T08:44:56;4.88;;;4.47;;
34765;SDS011;20984;43.508;1.504;2023-12-20T08:47:23;8.68;;;4.45;;
34765;SDS011;20984;43.508;1.504;2023-12-20T08:49:49;5.05;;;4.55;;
34765;SDS011;20984;43.508;1.504;2023-12-20T08:52:15;4.45;;;4.05;;
34765;SDS011;20984;43.508;1.504;2023-12-20T08:54:40;4.82;;;4.38;;
34765;SDS011;20984;43.508;1.504;2023-12-20T08:57:06;4.60;;;4.20;;
34765;SDS011;20984;43.508;1.504;2023-12-20T08:59:32;7.30;;;4.05;;
34765;SDS011;20984;43.508;1.504;2023-12-20T09:01:58;4.40;;;4.00;;
34765;SDS011;20984;43.508;1.504;2023-12-20T09:04:24;5.00;;;4.50;;
34765;SDS011;20984;43.508;1.504;2023-12-20T09:06:50;6.55;;;4.57;;
34765;SDS011;20984;43.508;1.504;2023-12-20T09:09:15;4.97;;;4.47;;
34765;SDS011;20984;43.508;1.504;2023-12-20T09:11:41;5.85;;;5.25;;
34765;SDS011;20984;43.508;1.504;2023-12-20T09:14:07;5.68;;;5.18;;
34765;SDS011;20984;43.508;1.504;2023-12-20T09:16:33;5.22;;;4.72;;
34765;SDS011;20984;43.508;1.504;2023-12-20T09:18:59;6.10;;;5.50;;
34765;SDS011;20984;43.508;1.504;2023-12-20T09:21:24;5.50;;;4.95;;
34765;SDS011;20984;43.508;1.504;2023-12-20T09:23:50;4.55;;;4.18;;
34765;SDS011;20984;43.508;1.504;2023-12-20T09:26:16;6.43;;;5.10;;
34765;SDS011;20984;43.508;1.504;2023-12-20T09:28:42;5.72;;;4.85;;
34765;SDS011;20984;43.508;1.504;2023-12-20T09:31:07;6.78;;;5.22;;
34765;SDS011;20984;43.508;1.504;2023-12-20T09:33:33;5.03;;;4.63;;
34765;SDS011;20984;43.508;1.504;2023-12-20T09:35:59;4.38;;;3.92;;
34765;SDS011;20984;43.508;1.504;2023-12-20T09:38:25;5.85;;;4.90;;
34765;SDS011;20984;43.508;1.504;2023-12-20T09:40:50;5.82;;;5.07;;
34765;SDS011;20984;43.508;1.504;2023-12-20T09:43:18;5.90;;;5.30;;
34765;SDS011;20984;43.508;1.504;2023-12-20T09:45:46;6.55;;;5.13;;
34765;SDS011;20984;43.508;1.504;2023-12-20T09:48:12;7.57;;;4.78;;
34765;SDS011;20984;43.508;1.504;2023-12-20T09:50:41;5.45;;;4.65;;
34765;SDS011;20984;43.508;1.504;2023-12-20T09:53:11;4.30;;;3.88;;
34765;SDS011;20984;43.508;1.504;2023-12-20T09:55:40;6.40;;;4.38;;
34765;SDS011;20984;43.508;1.504;2023-12-20T09:58:06;3.65;;;3.35;;
34765;SDS011;20984;43.508;1.504;2023-12-20T10:00:33;8.15;;;4.10;;
34765;SDS011;20984;43.508;1.504;2023-12-20T10:03:00;6.20;;;4.28;;
34765;SDS011;20984;43.508;1.504;2023-12-20T10:05:27;6.68;;;4.82;;
34765;SDS011;20984;43.508;1.504;2023-12-20T10:07:54;6.50;;;4.85;;
34765;SDS011;20984;43.508;1.504;2023-12-20T10:10:20;7.18;;;5.38;;
34765;SDS011;20984;43.508;1.504;2023-12-20T10:13:05;5.70;;;4.63;;
34765;SDS011;20984;43.508;1.504;2023-12-20T10:15:35;5.65;;;4.20;;
34765;SDS011;20984;43.508;1.504;2023-12-20T10:18:02;5.57;;;3.92;;
34765;SDS011;20984;43.508;1.504;2023-12-20T10:20:28;3.83;;;3.25;;
34765;SDS011;20984;43.508;1.504;2023-12-20T10:22:55;3.83;;;3.40;;
34765;SDS011;20984;43.508;1.504;2023-12-20T10:25:21;4.15;;;3.72;;
34765;SDS011;20984;43.508;1.504;2023-12-20T10:27:47;5.35;;;3.50;;
34765;SDS011;20984;43.508;1.504;2023-12-20T10:30:14;3.75;;;3.35;;
34765;SDS011;20984;43.508;1.504;2023-12-20T10:32:40;7.80;;;4.50;;
34765;SDS011;20984;43.508;1.504;2023-12-20T10:35:08;6.18;;;4.22;;
34765;SDS011;20984;43.508;1.504;2023-12-20T10:37:35;4.43;;;4.03;;
34765;SDS011;20984;43.508;1.504;2023-12-20T10:40:02;4.28;;;3.88;;
34765;SDS011;20984;43.508;1.504;2023-12-20T10:42:30;4.85;;;4.15;;
34765;SDS011;20984;43.508;1.504;2023-12-20T10:44:59;3.95;;;3.55;;
34765;SDS011;20984;43.508;1.504;2023-12-20T10:47:25;7.95;;;3.70;;
34765;SDS011;20984;43.508;1.504;2023-12-20T10:49:54;6.00;;;3.22;;
34765;SDS011;20984;43.508;1.504;2023-12-20T10:52:22;4.53;;;3.88;;
34765;SDS011;20984;43.508;1.504;2023-12-20T10:54:48;3.30;;;2.92;;
34765;SDS011;20984;43.508;1.504;2023-12-20T10:57:14;3.53;;;3.22;;
34765;SDS011;20984;43.508;1.504;2023-12-20T10:59:43;3.28;;;2.90;;
34765;SDS011;20984;43.508;1.504;2023-12-20T11:02:14;4.68;;;3.50;;
34765;SDS011;20984;43.508;1.504;2023-12-20T11:04:57;7.97;;;3.50;;
34765;SDS011;20984;43.508;1.504;2023-12-20T11:07:33;6.73;;;3.70;;
34765;SDS011;20984;43.508;1.504;2023-12-20T11:13:16;6.75;;;3.47;;
34765;SDS011;20984;43.508;1.504;2023-12-20T11:15:47;5.50;;;3.60;;
34765;SDS011;20984;43.508;1.504;2023-12-20T11:18:13;4.28;;;3.33;;
34765;SDS011;20984;43.508;1.504;2023-12-20T11:20:41;3.38;;;3.08;;
34765;SDS011;20984;43.508;1.504;2023-12-20T11:23:07;6.15;;;3.00;;
34765;SDS011;20984;43.508;1.504;2023-12-20T11:25:52;4.07;;;2.55;;
34765;SDS011;20984;43.508;1.504;2023-12-20T11:28:23;8.05;;;3.80;;
34765;SDS011;20984;43.508;1.504;2023-12-20T11:30:50;4.38;;;2.72;;
34765;SDS011;20984;43.508;1.504;2023-12-20T11:33:24;3.30;;;3.00;;
34765;SDS011;20984;43.508;1.504;2023-12-20T11:35:51;3.80;;;2.60;;
34765;SDS011;20984;43.508;1.504;2023-12-20T11:38:20;4.90;;;3.05;;
34765;SDS011;20984;43.508;1.504;2023-12-20T11:40:48;5.03;;;2.80;;
34765;SDS011;20984;43.508;1.504;2023-12-20T11:46:04;8.40;;;2.70;;
34765;SDS011;20984;43.508;1.504;2023-12-20T11:48:31;3.05;;;2.75;;
34765;SDS011;20984;43.508;1.504;2023-12-20T11:50:58;4.78;;;2.22;;
34765;SDS011;20984;43.508;1.504;2023-12-20T11:53:24;3.97;;;2.78;;
34765;SDS011;20984;43.508;1.504;2023-12-20T11:55:50;6.07;;;3.22;;
34765;SDS011;20984;43.508;1.504;2023-12-20T11:58:16;6.82;;;3.42;;
34765;SDS011;20984;43.508;1.504;2023-12-20T12:00:42;4.55;;;2.97;;
34765;SDS011;20984;43.508;1.504;2023-12-20T12:03:08;5.22;;;2.53;;
34765;SDS011;20984;43.508;1.504;2023-12-20T12:05:34;6.28;;;3.00;;
34765;SDS011;20984;43.508;1.504;2023-12-20T12:08:01;5.60;;;3.10;;
34765;SDS011;20984;43.508;1.504;2023-12-20T12:10:28;5.68;;;3.05;;
34765;SDS011;20984;43.508;1.504;2023-12-20T12:12:54;10.48;;;3.22;;
34765;SDS011;20984;43.508;1.504;2023-12-20T12:15:20;3.47;;;2.33;;
34765;SDS011;20984;43.508;1.504;2023-12-20T12:17:53;8.82;;;3.60;;
34765;SDS011;20984;43.508;1.504;2023-12-20T12:20:22;6.70;;;3.45;;
34765;SDS011;20984;43.508;1.504;2023-12-20T12:22:58;4.47;;;2.95;;
34765;SDS011;20984;43.508;1.504;2023-12-20T12:25:31;4.78;;;2.65;;
34765;SDS011;20984;43.508;1.504;2023-12-20T12:27:58;3.53;;;2.70;;
34765;SDS011;20984;43.508;1.504;2023-12-20T12:30:24;3.15;;;2.83;;
34765;SDS011;20984;43.508;1.504;2023-12-20T12:32:50;5.35;;;2.60;;
34765;SDS011;20984;43.508;1.504;2023-12-20T12:35:17;4.15;;;2.55;;
34765;SDS011;20984;43.508;1.504;2023-12-20T12:37:43;9.30;;;3.00;;
34765;SDS011;20984;43.508;1.504;2023-12-20T12:40:09;5.18;;;3.55;;
34765;SDS011;20984;43.508;1.504;2023-12-20T12:42:36;5.03;;;3.28;;
34765;SDS011;20984;43.508;1.504;2023-12-20T12:45:03;2.50;;;2.30;;
34765;SDS011;20984;43.508;1.504;2023-12-20T12:47:29;8.82;;;2.92;;
34765;SDS011;20984;43.508;1.504;2023-12-20T12:49:55;4.93;;;3.67;;
34765;SDS011;20984;43.508;1.504;2023-12-20T12:52:21;4.53;;;3.30;;
34765;SDS011;20984;43.508;1.504;2023-12-20T12:54:47;5.68;;;3.05;;
34765;SDS011;20984;43.508;1.504;2023-12-20T12:57:13;6.60;;;3.10;;
34765;SDS011;20984;43.508;1.504;2023-12-20T12:59:40;4.32;;;3.03;;
34765;SDS011;20984;43.508;1.504;2023-12-20T13:02:06;5.18;;;3.30;;
34765;SDS011;20984;43.508;1.504;2023-12-20T13:04:32;8.23;;;2.70;;
34765;SDS011;20984;43.508;1.504;2023-12-20T13:06:57;9.25;;;3.03;;
34765;SDS011;20984;43.508;1.504;2023-12-20T13:09:23;7.05;;;2.88;;
34765;SDS011;20984;43.508;1.504;2023-12-20T13:11:49;6.50;;;3.55;;
34765;SDS011;20984;43.508;1.504;2023-12-20T13:14:14;12.57;;;3.50;;
34765;SDS011;20984;43.508;1.504;2023-12-20T13:16:41;9.20;;;3.40;;
34765;SDS011;20984;43.508;1.504;2023-12-20T13:19:07;3.67;;;2.72;;
34765;SDS011;20984;43.508;1.504;2023-12-20T13:21:33;4.97;;;3.00;;
34765;SDS011;20984;43.508;1.504;2023-12-20T13:23:58;6.05;;;3.00;;
34765;SDS011;20984;43.508;1.504;2023-12-20T13:26:24;2.63;;;2.40;;
34765;SDS011;20984;43.508;1.504;2023-12-20T13:28:50;4.55;;;3.47;;
34765;SDS011;20984;43.508;1.504;2023-12-20T13:31:15;6.47;;;3.20;;
34765;SDS011;20984;43.508;1.504;2023-12-20T13:33:41;4.90;;;3.13;;
34765;SDS011;20984;43.508;1.504;2023-12-20T13:36:07;4.15;;;2.65;;
34765;SDS011;20984;43.508;1.504;2023-12-20T13:38:33;13.00;;;2.90;;
34765;SDS011;20984;43.508;1.504;2023-12-20T13:40:58;4.97;;;3.30;;
34765;SDS011;20984;43.508;1.504;2023-12-20T13:43:24;7.95;;;5.10;;
34765;SDS011;20984;43.508;1.504;2023-12-20T13:45:50;4.50;;;2.88;;
34765;SDS011;20984;43.508;1.504;2023-12-20T13:48:16;7.95;;;3.38;;
34765;SDS011;20984;43.508;1.504;2023-12-20T13:50:41;7.95;;;2.92;;
34765;SDS011;20984;43.508;1.504;2023-12-20T13:53:07;10.18;;;2.95;;
34765;SDS011;20984;43.508;1.504;2023-12-20T13:55:33;8.18;;;2.97;;
34765;SDS011;20984;43.508;1.504;2023-12-20T13:57:58;4.38;;;2.58;;
34765;SDS011;20984;43.508;1.504;2023-12-20T14:00:24;7.07;;;2.92;;
34765;SDS011;20984;43.508;1.504;2023-12-20T14:02:50;8.18;;;4.03;;
34765;SDS011;20984;43.508;1.504;2023-12-20T14:05:16;8.20;;;3.33;;
34765;SDS011;20984;43.508;1.504;2023-12-20T14:07:45;6.82;;;3.35;;
34765;SDS011;20984;43.508;1.504;2023-12-20T14:10:11;8.70;;;3.72;;
34765;SDS011;20984;43.508;1.504;2023-12-20T14:12:41;5.82;;;2.88;;
34765;SDS011;20984;43.508;1.504;2023-12-20T14:15:07;9.77;;;3.38;;
34765;SDS011;20984;43.508;1.504;2023-12-20T14:17:36;9.90;;;3.33;;
34765;SDS011;20984;43.508;1.504;2023-12-20T14:20:03;10.68;;;3.47;;
34765;SDS011;20984;43.508;1.504;2023-12-20T14:22:31;5.95;;;3.35;;
34765;SDS011;20984;43.508;1.504;2023-12-20T14:24:57;9.05;;;3.38;;
34765;SDS011;20984;43.508;1.504;2023-12-20T14:27:22;9.48;;;3.25;;
34765;SDS011;20984;43.508;1.504;2023-12-20T14:29:49;9.63;;;3.10;;
34765;SDS011;20984;43.508;1.504;2023-12-20T14:32:15;6.88;;;3.63;;
34765;SDS011;20984;43.508;1.504;2023-12-20T14:34:41;6.05;;;3.30;;
34765;SDS011;20984;43.508;1.504;2023-12-20T14:37:07;10.25;;;3.42;;
34765;SDS011;20984;43.508;1.504;2023-12-20T14:39:32;4.75;;;2.90;;